createdAt,value
2023-03-15T00:02:15.585Z,100269.09
2023-03-15T00:05:17.021Z,100272.66
2023-03-15T00:08:19.163Z,100265.88
2023-03-15T00:11:20.663Z,100271.97
2023-03-15T00:14:22.675Z,100281.41
2023-03-15T00:17:24.072Z,100292.78
2023-03-15T00:20:25.579Z,100292.84
2023-03-15T00:23:27.039Z,100289.41
2023-03-15T00:26:28.770Z,100297.22
2023-03-15T00:29:30.359Z,100301.56
2023-03-15T00:32:31.896Z,100302.63
2023-03-15T00:35:38.075Z,100313.06
2023-03-15T00:38:41.078Z,100309.66
2023-03-15T00:41:45.573Z,100321.84
2023-03-15T00:44:47.187Z,100309.75
2023-03-15T00:47:51.031Z,100321.09
2023-03-15T00:51:00.935Z,100323.81
2023-03-15T00:54:02.344Z,100330.75
2023-03-15T00:57:04.105Z,100342.94
2023-03-15T01:00:08.682Z,100337.75
2023-03-15T01:03:10.126Z,100344.69
2023-03-15T01:06:17.932Z,100338.72
2023-03-15T01:09:19.423Z,100349.16
2023-03-15T01:12:20.868Z,100337.03
2023-03-15T01:15:22.454Z,100353.56
2023-03-15T01:18:23.886Z,100346.66
2023-03-15T01:21:25.680Z,100346.69
2023-03-15T01:24:27.071Z,100350.22
2023-03-15T01:27:28.450Z,100351.16
2023-03-15T01:30:29.906Z,100348.53
2023-03-15T01:33:31.422Z,100359.00
2023-03-15T01:36:32.819Z,100353.81
2023-03-15T01:39:34.416Z,100360.78
2023-03-15T01:42:51.849Z,100364.22
2023-03-15T01:46:01.326Z,100360.69
2023-03-15T01:49:13.813Z,100372.03
2023-03-15T01:52:26.101Z,100368.56
2023-03-15T01:55:34.037Z,100365.97
2023-03-15T01:58:46.386Z,100366.88
2023-03-15T02:01:48.896Z,100365.16
2023-03-15T02:04:57.607Z,100369.47
2023-03-15T02:08:00.288Z,100367.69
2023-03-15T02:11:06.358Z,100382.53
2023-03-15T02:14:11.811Z,100378.19
2023-03-15T02:17:15.265Z,100386.91
2023-03-15T02:20:53.834Z,100374.84
2023-03-15T02:24:39.283Z,100393.97
2023-03-15T02:27:41.320Z,100402.69
2023-03-15T02:30:43.718Z,100411.38
2023-03-15T02:33:53.151Z,100417.47
2023-03-15T02:36:56.040Z,100421.81
2023-03-15T02:39:57.452Z,100421.81
2023-03-15T02:43:15.513Z,100434.00
2023-03-15T02:46:18.068Z,100430.50
2023-03-15T02:49:23.135Z,100438.31
2023-03-15T02:52:25.201Z,100442.69
2023-03-15T02:55:26.649Z,100457.47
2023-03-15T02:58:28.718Z,100456.59
2023-03-15T03:01:31.825Z,100461.81
2023-03-15T03:04:33.339Z,100456.59
2023-03-15T03:07:36.101Z,100466.16
2023-03-15T03:10:39.721Z,100473.13
2023-03-15T03:13:41.895Z,100463.56
2023-03-15T03:16:43.432Z,100473.97
2023-03-15T03:19:45.111Z,100477.47
2023-03-15T03:22:46.844Z,100482.66
2023-03-15T03:25:48.240Z,100483.50
2023-03-15T03:28:49.673Z,100490.47
2023-03-15T03:31:51.185Z,100491.31
2023-03-15T03:34:55.953Z,100493.09
2023-03-15T03:37:58.641Z,100500.03
2023-03-15T03:41:07.171Z,100500.88
2023-03-15T03:44:09.009Z,100501.75
2023-03-15T03:47:10.676Z,100507.84
2023-03-15T03:50:12.406Z,100508.72
2023-03-15T03:53:14.433Z,100515.66
2023-03-15T03:56:16.008Z,100513.03
2023-03-15T03:59:19.176Z,100520.88
2023-03-15T04:02:27.952Z,100527.81
2023-03-15T04:05:36.146Z,100524.34
2023-03-15T04:08:37.634Z,100527.78
2023-03-15T04:11:42.562Z,100526.91
2023-03-15T04:14:43.991Z,100541.66
2023-03-15T04:17:46.873Z,100545.13
2023-03-15T04:20:48.453Z,100552.94
2023-03-15T04:23:52.204Z,100544.25
2023-03-15T04:27:06.959Z,100546.03
2023-03-15T04:30:30.583Z,100532.97
2023-03-15T04:33:41.134Z,100526.91
2023-03-15T04:37:11.402Z,100535.59
2023-03-15T04:40:36.134Z,100539.03
2023-03-15T04:44:16.174Z,100549.44
2023-03-15T04:47:37.851Z,100545.97
2023-03-15T04:50:57.919Z,100550.31
2023-03-15T04:54:09.989Z,100557.25
2023-03-15T04:57:27.297Z,100559.91
2023-03-15T05:00:47.702Z,100574.59
2023-03-15T05:04:18.363Z,100564.19
2023-03-15T05:07:35.863Z,100568.50
2023-03-15T05:10:45.637Z,100569.41
2023-03-15T05:14:25.639Z,100571.16
2023-03-15T05:17:50.206Z,100571.13
2023-03-15T05:21:07.990Z,100566.78
2023-03-15T05:24:32.216Z,100573.75
2023-03-15T05:27:52.798Z,100578.94
2023-03-15T05:31:02.590Z,100573.75
2023-03-15T05:34:24.316Z,100582.38
2023-03-15T05:37:44.366Z,100585.00
2023-03-15T05:40:57.743Z,100580.66
2023-03-15T05:44:11.387Z,100583.28
2023-03-15T05:47:51.029Z,100587.63
2023-03-15T05:51:10.695Z,100591.06
2023-03-15T05:54:42.329Z,100595.44
2023-03-15T05:58:06.223Z,100595.44
2023-03-15T06:01:18.494Z,100604.13
2023-03-15T06:04:39.275Z,100604.13
2023-03-15T06:07:41.814Z,100591.13
2023-03-15T06:10:43.526Z,100611.06
2023-03-15T06:13:46.218Z,100614.56
2023-03-15T06:16:58.853Z,100628.47
2023-03-15T06:20:01.895Z,100634.53
2023-03-15T06:23:04.266Z,100631.06
2023-03-15T06:26:15.129Z,100625.84
2023-03-15T06:29:17.275Z,100633.66
2023-03-15T06:32:21.903Z,100633.66
2023-03-15T06:35:24.211Z,100633.66
2023-03-15T06:38:25.819Z,100639.75
2023-03-15T06:41:27.281Z,100640.63
2023-03-15T06:44:36.073Z,100633.69
2023-03-15T06:47:41.240Z,100639.75
2023-03-15T06:50:47.389Z,100636.28
2023-03-15T06:53:49.846Z,100635.44
2023-03-15T06:56:51.469Z,100635.44
2023-03-15T06:59:54.088Z,100640.63
2023-03-15T07:02:55.528Z,100652.78
2023-03-15T07:05:56.937Z,100657.13
2023-03-15T07:08:58.311Z,100651.06
2023-03-15T07:11:59.684Z,100658.00
2023-03-15T07:15:01.083Z,100650.19
2023-03-15T07:18:02.768Z,100656.28
2023-03-15T07:21:05.220Z,100661.47
2023-03-15T07:24:06.777Z,100658.00
2023-03-15T07:27:14.451Z,100666.69
2023-03-15T07:30:17.598Z,100677.13
2023-03-15T07:33:22.294Z,100675.38
2023-03-15T07:36:23.879Z,100684.06
2023-03-15T07:39:26.699Z,100684.03
2023-03-15T07:42:28.189Z,100683.19
2023-03-15T07:45:35.045Z,100695.34
2023-03-15T07:48:36.529Z,100690.16
2023-03-15T07:51:38.068Z,100696.19
2023-03-15T07:54:39.457Z,100686.66
2023-03-15T07:57:41.052Z,100685.78
2023-03-15T08:00:42.634Z,100689.22
2023-03-15T08:03:44.065Z,100702.28
2023-03-15T08:06:45.548Z,100707.47
2023-03-15T08:09:47.116Z,100703.13
2023-03-15T08:12:48.732Z,100707.47
2023-03-15T08:15:50.606Z,100710.09
2023-03-15T08:18:52.083Z,100712.69
2023-03-15T08:21:53.924Z,100714.38
2023-03-15T08:24:57.417Z,100720.44
2023-03-15T08:27:58.862Z,100714.34
2023-03-15T08:31:00.352Z,100723.06
2023-03-15T08:34:01.926Z,100718.66
2023-03-15T08:37:03.580Z,100729.06
2023-03-15T08:40:09.323Z,100724.75
2023-03-15T08:43:10.797Z,100727.31
2023-03-15T08:46:12.808Z,100716.84
2023-03-15T08:49:14.274Z,100719.44
2023-03-15T08:52:18.038Z,100722.97
2023-03-15T08:55:20.638Z,100723.84
2023-03-15T08:58:22.180Z,100728.16
2023-03-15T09:01:24.041Z,100730.81
2023-03-15T09:04:25.548Z,100726.41
2023-03-15T09:07:26.992Z,100733.34
2023-03-15T09:10:35.147Z,100737.69
2023-03-15T09:13:36.566Z,100742.94
2023-03-15T09:16:38.051Z,100749.00
2023-03-15T09:19:39.768Z,100750.75
2023-03-15T09:22:42.528Z,100751.63
2023-03-15T09:25:44.040Z,100749.88
2023-03-15T09:28:45.445Z,100752.47
2023-03-15T09:31:46.998Z,100759.41
2023-03-15T09:34:49.616Z,100762.00
2023-03-15T09:37:51.215Z,100751.53
2023-03-15T09:41:00.213Z,100758.41
2023-03-15T09:44:44.479Z,100769.66
2023-03-15T09:48:05.345Z,100768.78
2023-03-15T09:51:10.267Z,100766.19
2023-03-15T09:54:20.284Z,100769.69
2023-03-15T09:57:40.964Z,100763.59
2023-03-15T10:00:49.736Z,100770.59
2023-03-15T10:03:53.587Z,100776.66
2023-03-15T10:07:01.726Z,100786.28
2023-03-15T10:10:04.935Z,100786.44
2023-03-15T10:13:25.613Z,100790.06
2023-03-15T10:16:37.946Z,100786.56
2023-03-15T10:19:50.030Z,100784.84
2023-03-15T10:23:00.875Z,100785.72
2023-03-15T10:26:06.135Z,100783.09
2023-03-15T10:29:14.726Z,100783.94
2023-03-15T10:32:19.186Z,100790.00
2023-03-15T10:35:21.442Z,100792.59
2023-03-15T10:38:25.388Z,100795.16
2023-03-15T10:41:29.109Z,100795.06
2023-03-15T10:44:36.642Z,100797.69
2023-03-15T10:47:50.401Z,100785.47
2023-03-15T10:50:57.251Z,100790.66
2023-03-15T10:54:16.056Z,100786.25
2023-03-15T10:57:21.255Z,100778.41
2023-03-15T11:00:23.887Z,100785.38
2023-03-15T11:03:26.637Z,100790.56
2023-03-15T11:06:28.879Z,100780.00
2023-03-15T11:10:02.051Z,100774.72
2023-03-15T11:13:30.817Z,100776.41
2023-03-15T11:16:37.565Z,100771.09
2023-03-15T11:19:42.142Z,100774.44
2023-03-15T11:22:43.708Z,100774.44
2023-03-15T11:25:45.840Z,100782.28
2023-03-15T11:28:52.906Z,100781.09
2023-03-15T11:31:55.751Z,100770.50
2023-03-15T11:35:06.531Z,100776.50
2023-03-15T11:38:17.235Z,100776.63
2023-03-15T11:41:42.583Z,100767.09
2023-03-15T11:44:47.495Z,100771.38
2023-03-15T11:47:57.802Z,100772.19
2023-03-15T11:51:01.058Z,100772.38
2023-03-15T11:54:05.507Z,100773.28
2023-03-15T11:57:30.502Z,100778.75
2023-03-15T12:00:34.938Z,100781.38
2023-03-15T12:03:44.644Z,100781.34
2023-03-15T12:06:46.063Z,100777.72
2023-03-15T12:09:56.368Z,100785.56
2023-03-15T12:13:05.468Z,100784.03
2023-03-15T12:16:07.203Z,100778.78
2023-03-15T12:19:18.142Z,100782.28
2023-03-15T12:22:19.910Z,100780.56
2023-03-15T12:25:39.505Z,100777.81
2023-03-15T12:29:13.852Z,100787.38
2023-03-15T12:32:19.160Z,100786.59
2023-03-15T12:35:23.861Z,100787.50
2023-03-15T12:38:25.360Z,100791.03
2023-03-15T12:41:39.622Z,100796.25
2023-03-15T12:44:43.099Z,100798.75
2023-03-15T12:47:45.416Z,100800.41
2023-03-15T12:50:47.945Z,100798.59
2023-03-15T12:53:52.031Z,100804.66
2023-03-15T12:57:00.027Z,100802.81
2023-03-15T13:00:16.684Z,100795.66
2023-03-15T13:03:23.663Z,100797.38
2023-03-15T13:06:50.730Z,100800.00
2023-03-15T13:10:07.073Z,100793.97
2023-03-15T13:13:38.861Z,100803.66
2023-03-15T13:16:57.985Z,100794.00
2023-03-15T13:20:17.522Z,100793.97
2023-03-15T13:23:27.281Z,100795.53
2023-03-15T13:26:50.999Z,100786.91
2023-03-15T13:29:52.398Z,100789.25
2023-03-15T13:33:09.012Z,100791.94
2023-03-15T13:36:23.429Z,100799.63
2023-03-15T13:39:28.341Z,100780.97
2023-03-15T13:42:29.978Z,100767.81
2023-03-15T13:45:31.445Z,100769.00
2023-03-15T13:48:36.918Z,100772.59
2023-03-15T13:51:39.483Z,100751.34
2023-03-15T13:54:41.993Z,100757.59
2023-03-15T13:57:43.675Z,100753.88
2023-03-15T14:00:47.103Z,100750.09
2023-03-15T14:03:56.449Z,100753.88
2023-03-15T14:07:20.085Z,100746.25
2023-03-15T14:10:24.780Z,100743.53
2023-03-15T14:13:35.723Z,100750.63
2023-03-15T14:17:01.223Z,100737.38
2023-03-15T14:20:08.911Z,100745.03
2023-03-15T14:23:16.727Z,100752.25
2023-03-15T14:26:27.600Z,100741.88
2023-03-15T14:29:32.671Z,100748.47
2023-03-15T14:32:37.186Z,100746.34
2023-03-15T14:35:38.549Z,100751.88
2023-03-15T14:38:40.059Z,100746.63
2023-03-15T14:41:41.546Z,100753.13
2023-03-15T14:44:43.026Z,100755.16
2023-03-15T14:47:58.128Z,100754.25
2023-03-15T14:50:59.840Z,100754.47
2023-03-15T14:54:01.643Z,100748.53
2023-03-15T14:57:03.082Z,100754.13
2023-03-15T15:00:06.679Z,100762.41
2023-03-15T15:03:17.995Z,100759.31
2023-03-15T15:06:19.668Z,100762.25
2023-03-15T15:09:23.630Z,100773.97
2023-03-15T15:12:25.038Z,100776.88
2023-03-15T15:15:26.640Z,100778.53
2023-03-15T15:18:30.914Z,100776.88
2023-03-15T15:21:34.168Z,100769.94
2023-03-15T15:24:35.704Z,100774.53
2023-03-15T15:27:37.078Z,100780.78
2023-03-15T15:30:38.696Z,100775.50
2023-03-15T15:33:40.154Z,100774.78
2023-03-15T15:36:45.860Z,100786.16
2023-03-15T15:39:47.617Z,100794.31
2023-03-15T15:42:49.052Z,100798.84
2023-03-15T15:45:50.534Z,100803.03
2023-03-15T15:48:52.536Z,100814.50
2023-03-15T15:51:54.105Z,100820.66
2023-03-15T15:54:55.589Z,100816.78
2023-03-15T15:57:57.838Z,100829.53
2023-03-15T16:00:59.269Z,100831.53
2023-03-15T16:04:01.970Z,100835.03
2023-03-15T16:07:03.935Z,100832.38
2023-03-15T16:10:07.423Z,100830.56
2023-03-15T16:13:11.271Z,100834.59
2023-03-15T16:16:15.355Z,100832.72
2023-03-15T16:19:16.793Z,100838.22
2023-03-15T16:22:20.456Z,100846.06
2023-03-15T16:25:26.441Z,100841.69
2023-03-15T16:28:28.637Z,100839.78
2023-03-15T16:31:33.629Z,100845.13
2023-03-15T16:34:35.040Z,100834.66
2023-03-15T16:37:36.584Z,100841.59
2023-03-15T16:40:42.018Z,100846.06
2023-03-15T16:43:44.066Z,100842.56
2023-03-15T16:46:46.070Z,100848.69
2023-03-15T16:49:47.579Z,100845.50
2023-03-15T16:52:54.389Z,100847.44
2023-03-15T16:55:55.933Z,100850.97
2023-03-15T16:58:57.317Z,100857.19
2023-03-15T17:01:58.929Z,100859.69
2023-03-15T17:05:00.512Z,100857.88
2023-03-15T17:08:02.236Z,100866.63
2023-03-15T17:11:03.663Z,100858.81
2023-03-15T17:14:06.314Z,100861.59
2023-03-15T17:17:08.603Z,100872.09
2023-03-15T17:20:12.425Z,100870.44
2023-03-15T17:23:14.627Z,100869.56
2023-03-15T17:26:19.225Z,100876.50
2023-03-15T17:29:21.119Z,100883.59
2023-03-15T17:32:23.081Z,100890.59
2023-03-15T17:35:30.023Z,100892.28
2023-03-15T17:38:32.809Z,100896.66
2023-03-15T17:41:37.057Z,100899.25
2023-03-15T17:44:38.443Z,100905.38
2023-03-15T17:47:39.821Z,100904.59
2023-03-15T17:50:44.385Z,100900.19
2023-03-15T17:53:46.190Z,100900.25
2023-03-15T17:56:47.595Z,100905.47
2023-03-15T17:59:48.972Z,100911.66
2023-03-15T18:02:58.821Z,100914.31
2023-03-15T18:06:01.337Z,100924.00
2023-03-15T18:09:02.746Z,100928.41
2023-03-15T18:12:04.427Z,100927.56
2023-03-15T18:15:06.491Z,100934.59
2023-03-15T18:18:08.016Z,100929.41
2023-03-15T18:21:21.442Z,100934.69
2023-03-15T18:24:22.961Z,100940.81
2023-03-15T18:27:24.356Z,100942.66
2023-03-15T18:30:28.370Z,100954.06
2023-03-15T18:33:31.400Z,100956.72
2023-03-15T18:36:32.865Z,100964.56
2023-03-15T18:39:34.253Z,100960.19
2023-03-15T18:42:35.651Z,100961.06
2023-03-15T18:45:37.314Z,100953.25
2023-03-15T18:48:41.036Z,100959.34
2023-03-15T18:51:42.737Z,100962.00
2023-03-15T18:54:44.161Z,100951.56
2023-03-15T18:57:46.026Z,100953.31
2023-03-15T19:00:48.954Z,100954.22
2023-03-15T19:03:51.421Z,100952.47
2023-03-15T19:06:52.896Z,100953.34
2023-03-15T19:09:54.278Z,100952.47
2023-03-15T19:12:55.866Z,100950.72
2023-03-15T19:15:57.729Z,100949.84
2023-03-15T19:18:59.180Z,100955.13
2023-03-15T19:22:00.625Z,100960.34
2023-03-15T19:25:02.059Z,100965.63
2023-03-15T19:28:03.662Z,100970.00
2023-03-15T19:31:05.354Z,100970.06
2023-03-15T19:34:06.759Z,100975.28
2023-03-15T19:37:08.958Z,100981.38
2023-03-15T19:40:12.344Z,100987.50
2023-03-15T19:43:15.031Z,100986.63
2023-03-15T19:46:17.258Z,100991.88
2023-03-15T19:49:18.705Z,100990.09
2023-03-15T19:52:21.135Z,100986.59
2023-03-15T19:55:22.525Z,100993.56
2023-03-15T19:58:24.125Z,100993.56
2023-03-15T20:01:25.612Z,100993.56
2023-03-15T20:04:27.278Z,100996.22
2023-03-15T20:07:28.754Z,101002.31
2023-03-15T20:10:30.266Z,100997.09
2023-03-15T20:13:32.020Z,101000.56
2023-03-15T20:16:33.499Z,100999.69
2023-03-15T20:19:35.994Z,100997.06
2023-03-15T20:22:40.629Z,100995.34
2023-03-15T20:25:43.166Z,101000.56
2023-03-15T20:28:47.154Z,101005.81
2023-03-15T20:31:49.311Z,100997.09
2023-03-15T20:34:56.956Z,101003.22
2023-03-15T20:38:06.329Z,101009.28
2023-03-15T20:41:07.867Z,101015.38
2023-03-15T20:44:09.789Z,101023.22
2023-03-15T20:47:11.237Z,101021.47
2023-03-15T20:50:13.125Z,101019.72
2023-03-15T20:53:14.578Z,101025.81
2023-03-15T20:56:17.766Z,101017.97
2023-03-15T20:59:19.213Z,101015.38
2023-03-15T21:02:22.293Z,101030.19
2023-03-15T21:05:24.247Z,101021.44
2023-03-15T21:08:25.633Z,101024.06
2023-03-15T21:11:27.360Z,101029.25
2023-03-15T21:14:28.830Z,101023.16
2023-03-15T21:17:30.265Z,101021.47
2023-03-15T21:20:32.552Z,101031.00
2023-03-15T21:23:34.708Z,101017.06
2023-03-15T21:26:37.968Z,101024.88
2023-03-15T21:29:40.075Z,101021.41
2023-03-15T21:32:42.756Z,101026.63
2023-03-15T21:35:44.479Z,101026.63
2023-03-15T21:38:45.858Z,101030.13
2023-03-15T21:41:47.777Z,101029.22
2023-03-15T21:44:49.255Z,101030.97
2023-03-15T21:47:52.524Z,101026.59
2023-03-15T21:50:54.048Z,101030.09
2023-03-15T21:53:55.827Z,101025.75
2023-03-15T21:56:58.061Z,101034.41
2023-03-15T21:59:59.563Z,101033.56
2023-03-15T22:03:01.372Z,101027.47
2023-03-15T22:06:03.562Z,101031.78
2023-03-15T22:09:04.962Z,101036.13
2023-03-15T22:12:07.120Z,101040.47
2023-03-15T22:15:09.669Z,101026.53
2023-03-15T22:18:11.054Z,101031.72
2023-03-15T22:21:12.485Z,101034.31
2023-03-15T22:24:14.848Z,101023.84
2023-03-15T22:27:16.624Z,101030.75
2023-03-15T22:30:18.759Z,101026.38
2023-03-15T22:33:22.091Z,101029.88
2023-03-15T22:36:23.580Z,101028.94
2023-03-15T22:39:25.982Z,101028.06
2023-03-15T22:42:27.373Z,101034.13
2023-03-15T22:45:28.899Z,101028.88
2023-03-15T22:48:30.795Z,101021.06
2023-03-15T22:51:32.201Z,101022.75
2023-03-15T22:54:33.587Z,101016.63
2023-03-15T22:57:35.129Z,101021.75
2023-03-15T23:00:36.556Z,101014.81
2023-03-15T23:03:37.961Z,101015.75
2023-03-15T23:06:39.351Z,101011.38
2023-03-15T23:09:40.757Z,101014.84
2023-03-15T23:12:42.208Z,101015.63
2023-03-15T23:15:43.669Z,101017.44
2023-03-15T23:18:45.369Z,101026.88
2023-03-15T23:21:46.800Z,101017.19
2023-03-15T23:24:48.185Z,101014.50
2023-03-15T23:27:50.824Z,101020.59
2023-03-15T23:30:52.207Z,101013.56
2023-03-15T23:33:53.624Z,101013.56
2023-03-15T23:36:55.062Z,101018.72
2023-03-15T23:39:56.455Z,101012.72
2023-03-15T23:43:00.753Z,101012.78
2023-03-15T23:46:04.346Z,101015.44
2023-03-15T23:49:05.814Z,101015.41
2023-03-15T23:52:07.563Z,101021.44
2023-03-15T23:55:09.792Z,101015.25
2023-03-15T23:58:11.179Z,101019.69
